Port Hardy Airport
CYZT : now visible

Airfield :











YOU CAN JOIN US ON...

 
LOGIN :

Register | Disclaimer

   EN    FR    IT 

 









Legend :    VFR   Marginal VFR   IFR   Intensive IFR   Very Intensive IFR
Visi :
Ceiling :
>= 8 km
>= 3000ft
5 to 8 km
1000 to 3000 ft
1500m to 5 km
500 to 1000 ft
800 to 1500m
200 to 500 ft
< 800m
< 200 ft
Symbols :   Thunderstorms  Fog  Heavy snow  Heavy precipitations  Wind > 20 kt






- Airport Elevation : 71 ft
- IATA code : YZT


CYZT - Port Hardy

CURRENT METAR :
  • 281400Z 21006KT 12SM BKN043 OVC060 10/09 A2985 RMK SC5SC3 SLP110

EXPIRED METARs :
  • 281353Z 22005KT 15SM BKN043 10/09 A2985 RMK SC7 SLP109
  • 281300Z 25004KT 220V280 10SM -SHRA OVC043 10/09 A2983 RMK SC8 CVCTV CLD EMBD SLP103
  • 281257Z CCA 25005KT 10SM -SHRA OVC043 10/09 A2983 RMK SC8 CVCTV CLD EMBD SLP103
  • 281200Z 19005KT 15SM BKN052 10/09 A2981 RMK SC7 SLP095
  • 281126Z 22004KT 15SM FEW022 BKN052 10/09 A2979 RMK SC2SC3 SLP090

TAF TAF CYZT
Valid from the 28 at 13:00 until the 29 at 01:00 UTC


281239Z 2813/2901 19005KT P6SM BKN050
TEMPO 2813/2901 P6SM -SHRA SCT020 BKN040
BECMG 2820/2822 12010G20KT RMK NXT FCST BY 281900Z
CZVR FIR / North America



MET'MAP, your aeronautical weather chart ! - Copyright ORBIFLY December 2007 - Disclaimer

ORBIFLY MET'MAP TEAM :

Programming & Development : Alexandra Zaïnal
Concept & original design : Baudouin d'Aumeries
Assistance for programming : Marc-Olivier Méhu
Technical & hardware support : Manuel Goepfert

Contact : metmap@orbifly.com




SOURCES & CREDITS :

   NOAA       Earth
Advisory